Time;durP1;ratioP1;P1;durP2;ratioP2;P2;SDS_P1;SDS_P2;PMS_P1;PMS_P2;Temp;Humidity;BMP_temperature;BMP_pressure;BME280_temperature;BME280_humidity;BME280_pressure;Samples;Min_cycle;Max_cycle;Signal;HPM_P1;HPM_P2
2023/08/18 00:00:12;;;;;;;31.85;25.73;;;22.40;99.90;;;;;;4918259;29;20043;-73
2023/08/18 00:02:39;;;;;;;29.95;24.85;;;22.50;99.90;;;;;;4911392;29;20132;-73
2023/08/18 00:05:05;;;;;;;30.27;24.55;;;22.40;99.90;;;;;;4898528;29;20032;-73
2023/08/18 00:07:31;;;;;;;31.80;26.90;;;22.40;99.90;;;;;;4907835;29;20030;-73
2023/08/18 00:09:57;;;;;;;32.25;26.27;;;22.50;99.90;;;;;;4918053;29;20118;-73
2023/08/18 00:12:23;;;;;;;32.15;26.90;;;22.40;99.90;;;;;;4917661;29;20028;-74
2023/08/18 00:14:51;;;;;;;34.58;25.73;;;22.30;99.90;;;;;;4917111;29;20024;-73
2023/08/18 00:17:17;;;;;;;34.28;27.73;;;22.30;99.90;;;;;;4903455;29;20535;-72
2023/08/18 00:19:43;;;;;;;31.55;25.98;;;22.30;99.90;;;;;;4898839;29;20028;-72
2023/08/18 00:22:09;;;;;;;35.22;27.30;;;22.30;99.90;;;;;;4897705;29;20060;-72
2023/08/18 00:24:35;;;;;;;32.47;27.42;;;22.30;99.90;;;;;;4898071;29;20056;-73
2023/08/18 00:27:01;;;;;;;32.28;26.35;;;22.30;99.90;;;;;;4901587;29;20036;-74
2023/08/18 00:29:27;;;;;;;32.35;27.73;;;22.20;99.90;;;;;;4897050;29;20024;-73
2023/08/18 00:31:52;;;;;;;32.33;27.35;;;22.20;99.90;;;;;;4897975;29;20381;-73
2023/08/18 00:34:18;;;;;;;33.58;26.75;;;22.10;99.90;;;;;;4880393;29;20044;-73
2023/08/18 00:36:44;;;;;;;36.38;27.38;;;22.10;99.90;;;;;;4897683;29;20025;-73
2023/08/18 00:39:10;;;;;;;32.63;27.65;;;22.10;99.90;;;;;;4897722;29;20059;-73
2023/08/18 00:41:36;;;;;;;35.90;28.45;;;22.10;99.90;;;;;;4897714;29;20117;-75
2023/08/18 00:44:02;;;;;;;34.22;26.33;;;22.20;99.90;;;;;;4896422;29;20127;-72
2023/08/18 00:46:30;;;;;;;34.67;27.23;;;22.20;99.90;;;;;;4884794;29;20456;-72
2023/08/18 00:49:00;;;;;;;32.10;26.15;;;22.20;99.90;;;;;;4901680;29;20028;-72
2023/08/18 00:51:26;;;;;;;33.67;27.67;;;22.10;99.90;;;;;;4897589;29;20177;-73
2023/08/18 00:53:54;;;;;;;34.80;26.40;;;22.20;99.90;;;;;;4896173;29;20027;-74
2023/08/18 00:56:20;;;;;;;32.33;25.92;;;22.20;99.90;;;;;;4897645;29;20024;-73
2023/08/18 00:58:46;;;;;;;36.22;29.13;;;22.20;99.90;;;;;;4896408;29;20491;-73
2023/08/18 01:01:13;;;;;;;34.80;28.15;;;22.10;99.90;;;;;;4897429;29;20486;-73
2023/08/18 01:03:40;;;;;;;34.55;27.90;;;22.20;99.90;;;;;;4897530;29;20059;-75
2023/08/18 01:06:05;;;;;;;36.63;29.05;;;22.10;99.90;;;;;;4897096;29;20032;-73
2023/08/18 01:08:32;;;;;;;35.17;28.02;;;22.10;99.90;;;;;;4900983;29;20032;-73
2023/08/18 01:11:33;;;;;;;41.28;29.92;;;22.10;99.90;;;;;;4895429;29;20489;-74
2023/08/18 01:14:28;;;;;;;37.60;28.63;;;22.10;99.90;;;;;;4875467;29;20037;-75
2023/08/18 01:17:02;;;;;;;35.67;29.50;;;22.10;99.90;;;;;;4887105;29;20029;-72
2023/08/18 01:19:28;;;;;;;39.47;29.70;;;22.00;99.90;;;;;;4897643;29;20024;-72
2023/08/18 01:21:57;;;;;;;38.28;31.92;;;22.00;99.90;;;;;;4894716;29;20478;-73
2023/08/18 01:24:24;;;;;;;44.38;36.08;;;22.00;99.90;;;;;;4901167;29;20024;-73
2023/08/18 01:26:51;;;;;;;45.08;33.28;;;22.00;99.90;;;;;;4897028;29;20028;-73
2023/08/18 01:29:21;;;;;;;39.20;33.40;;;22.00;99.90;;;;;;4897151;29;20037;-73
2023/08/18 01:31:52;;;;;;;38.15;30.95;;;21.90;99.90;;;;;;4895703;29;20028;-74
2023/08/18 01:34:21;;;;;;;39.45;31.58;;;21.90;99.90;;;;;;4895684;29;20043;-72
2023/08/18 01:36:49;;;;;;;35.97;31.30;;;21.90;99.90;;;;;;4896037;29;20033;-73
2023/08/18 01:39:18;;;;;;;35.33;30.77;;;21.90;99.90;;;;;;4894377;29;20053;-75
2023/08/18 01:41:45;;;;;;;38.50;32.50;;;21.80;99.90;;;;;;4897002;29;20028;-73
2023/08/18 01:44:14;;;;;;;38.67;32.50;;;21.80;99.90;;;;;;4895389;29;20029;-74
2023/08/18 01:46:41;;;;;;;43.42;33.13;;;21.80;99.90;;;;;;4879636;29;20039;-72
2023/08/18 01:49:08;;;;;;;38.88;29.80;;;21.80;99.90;;;;;;4896302;29;20073;-72
2023/08/18 01:51:34;;;;;;;46.10;34.88;;;21.70;99.90;;;;;;4900372;29;20043;-72
2023/08/18 01:54:00;;;;;;;37.65;29.90;;;21.70;99.90;;;;;;4898184;29;20020;-72
2023/08/18 01:56:26;;;;;;;35.85;30.67;;;21.60;99.90;;;;;;4897190;29;20068;-73
2023/08/18 01:58:52;;;;;;;39.97;32.83;;;21.60;99.90;;;;;;4878495;29;20036;-73
2023/08/18 02:01:17;;;;;;;37.83;32.38;;;21.50;99.90;;;;;;4878968;29;20084;-73
2023/08/18 02:03:43;;;;;;;37.28;32.50;;;21.50;99.90;;;;;;4894530;29;20028;-76
2023/08/18 02:06:11;;;;;;;36.75;32.42;;;21.60;99.90;;;;;;4879079;29;20048;-74
2023/08/18 02:08:37;;;;;;;42.92;33.85;;;21.60;99.90;;;;;;4896152;29;20028;-73
2023/08/18 02:11:04;;;;;;;35.60;31.42;;;21.50;99.90;;;;;;4896969;29;20047;-73
2023/08/18 02:13:31;;;;;;;37.83;31.85;;;21.50;99.90;;;;;;4900400;29;20031;-72
2023/08/18 02:15:56;;;;;;;44.70;33.35;;;21.60;99.90;;;;;;4894387;29;20127;-74
2023/08/18 02:18:22;;;;;;;39.38;33.33;;;21.60;99.90;;;;;;4895438;29;20153;-73
2023/08/18 02:20:59;;;;;;;43.25;32.05;;;21.60;99.90;;;;;;4896364;29;20055;-74
2023/08/18 02:23:28;;;;;;;39.47;31.58;;;21.60;99.90;;;;;;4895879;29;20036;-73
2023/08/18 02:26:05;;;;;;;36.70;31.42;;;21.70;99.90;;;;;;4896041;29;20044;-73
2023/08/18 02:28:33;;;;;;;35.92;31.27;;;21.70;99.90;;;;;;4895805;29;20033;-73
2023/08/18 02:31:10;;;;;;;40.67;34.30;;;21.60;99.90;;;;;;4894806;29;20068;-73
2023/08/18 02:33:36;;;;;;;41.88;35.10;;;21.70;99.90;;;;;;4895266;29;20056;-73
2023/08/18 02:36:02;;;;;;;41.10;32.45;;;21.60;99.90;;;;;;4895578;29;20064;-76
2023/08/18 02:38:30;;;;;;;34.58;29.77;;;21.70;99.90;;;;;;4894123;29;20080;-77
2023/08/18 02:40:56;;;;;;;36.70;31.95;;;21.70;99.90;;;;;;4894800;29;20393;-75
2023/08/18 02:43:23;;;;;;;37.78;31.42;;;21.70;99.90;;;;;;4895477;29;20029;-74
2023/08/18 02:45:57;;;;;;;37.88;31.92;;;21.70;99.90;;;;;;4895740;29;20036;-72
2023/08/18 02:48:27;;;;;;;39.53;31.75;;;21.60;99.90;;;;;;4894467;29;20031;-75
2023/08/18 02:51:04;;;;;;;39.40;31.42;;;21.70;99.90;;;;;;4895187;29;20040;-75
2023/08/18 02:53:31;;;;;;;46.28;32.40;;;21.60;99.90;;;;;;4896091;29;20381;-74
2023/08/18 02:55:58;;;;;;;39.42;31.38;;;21.70;99.90;;;;;;4895869;29;20032;-74
2023/08/18 02:58:27;;;;;;;36.50;31.55;;;21.60;99.90;;;;;;4895312;29;20418;-74
2023/08/18 03:00:54;;;;;;;37.00;30.60;;;21.60;99.90;;;;;;4894667;29;20537;-74
2023/08/18 03:03:20;;;;;;;37.42;30.48;;;21.60;99.90;;;;;;4893958;29;20033;-74
2023/08/18 03:05:46;;;;;;;39.35;30.80;;;21.60;99.90;;;;;;4897804;29;20040;-75
2023/08/18 03:08:13;;;;;;;36.50;30.55;;;21.60;99.90;;;;;;4893687;29;20061;-74
2023/08/18 03:10:39;;;;;;;36.95;31.00;;;21.70;99.90;;;;;;4894464;29;20523;-71
2023/08/18 03:13:05;;;;;;;35.22;29.85;;;21.70;99.90;;;;;;4895493;29;20537;-71
2023/08/18 03:15:31;;;;;;;38.33;29.90;;;21.60;99.90;;;;;;4893019;29;20445;-71
2023/08/18 03:17:57;;;;;;;36.33;30.02;;;21.60;99.90;;;;;;4876798;29;20096;-74
2023/08/18 03:20:23;;;;;;;39.97;31.88;;;21.60;99.90;;;;;;4892252;29;20028;-76
2023/08/18 03:22:49;;;;;;;37.92;30.90;;;21.60;99.90;;;;;;4914665;29;20029;-74
2023/08/18 03:25:16;;;;;;;35.88;30.88;;;21.60;99.90;;;;;;4904376;29;20037;-73
2023/08/18 03:27:42;;;;;;;36.47;31.33;;;21.70;99.90;;;;;;4896689;29;20572;-75
2023/08/18 03:30:11;;;;;;;35.75;30.60;;;21.60;99.90;;;;;;4878103;29;20029;-73
2023/08/18 03:32:36;;;;;;;38.72;31.63;;;21.50;99.90;;;;;;4895223;29;20021;-73
2023/08/18 03:35:02;;;;;;;38.17;31.60;;;21.40;99.90;;;;;;4894816;29;20069;-73
2023/08/18 03:37:28;;;;;;;42.05;33.70;;;21.40;99.90;;;;;;4893470;29;20043;-74
2023/08/18 03:39:57;;;;;;;36.35;32.15;;;21.50;99.90;;;;;;4895223;29;20048;-72
2023/08/18 03:42:23;;;;;;;37.72;33.55;;;21.40;99.90;;;;;;4895053;29;20032;-73
2023/08/18 03:44:48;;;;;;;39.30;32.45;;;21.40;99.90;;;;;;4893869;29;20032;-72
2023/08/18 03:47:14;;;;;;;40.22;32.42;;;21.40;99.90;;;;;;4895085;29;20036;-74
2023/08/18 03:49:40;;;;;;;42.05;33.53;;;21.30;99.90;;;;;;4878265;29;20036;-73
2023/08/18 03:52:06;;;;;;;36.67;31.83;;;21.40;99.90;;;;;;4893736;29;20040;-74
2023/08/18 03:54:32;;;;;;;40.35;34.20;;;21.30;99.90;;;;;;4893708;29;20029;-73
2023/08/18 03:56:58;;;;;;;39.08;33.58;;;21.30;99.90;;;;;;4893808;29;20032;-72
2023/08/18 03:59:24;;;;;;;38.95;33.60;;;21.30;99.90;;;;;;4893928;29;20033;-75
2023/08/18 04:01:51;;;;;;;38.70;34.35;;;21.40;99.90;;;;;;4893793;29;20056;-75
2023/08/18 04:04:17;;;;;;;39.60;32.40;;;21.40;99.90;;;;;;4898482;29;20079;-75
2023/08/18 04:06:43;;;;;;;36.25;32.28;;;21.50;99.90;;;;;;4881481;29;20065;-73
2023/08/18 04:09:16;;;;;;;36.42;32.50;;;21.50;99.90;;;;;;4897962;29;20025;-73
2023/08/18 04:11:43;;;;;;;39.38;33.35;;;21.50;99.90;;;;;;4886034;29;20059;-75
2023/08/18 04:14:10;;;;;;;39.67;33.85;;;21.60;99.90;;;;;;4897484;29;20025;-75
2023/08/18 04:16:37;;;;;;;39.53;33.15;;;21.70;99.90;;;;;;4881056;29;20377;-73
2023/08/18 04:19:05;;;;;;;36.70;30.30;;;21.80;99.90;;;;;;4900820;29;20036;-73
2023/08/18 04:21:33;;;;;;;38.38;32.10;;;21.60;99.90;;;;;;4896689;29;21067;-73
2023/08/18 04:24:00;;;;;;;40.63;32.25;;;21.70;99.90;;;;;;4897136;29;20047;-73
2023/08/18 04:26:28;;;;;;;38.08;31.52;;;21.60;99.90;;;;;;4896764;29;20205;-75
2023/08/18 04:28:54;;;;;;;38.03;32.50;;;21.40;99.90;;;;;;4898128;29;20479;-74
2023/08/18 04:31:20;;;;;;;37.72;32.25;;;21.50;99.90;;;;;;4896699;29;20033;-72
2023/08/18 04:33:56;;;;;;;37.38;32.03;;;21.40;99.90;;;;;;4896496;29;20024;-75
2023/08/18 04:36:22;;;;;;;41.58;34.13;;;21.50;99.90;;;;;;4896899;29;20029;-72
2023/08/18 04:38:48;;;;;;;38.20;31.88;;;21.50;99.90;;;;;;4897447;29;20052;-74
2023/08/18 04:41:24;;;;;;;41.40;33.63;;;21.50;99.90;;;;;;4896678;29;20505;-75
2023/08/18 04:43:51;;;;;;;39.00;32.58;;;21.60;99.90;;;;;;4896267;29;20036;-72
2023/08/18 04:46:19;;;;;;;39.70;32.08;;;21.60;99.90;;;;;;4880832;29;20534;-73
2023/08/18 04:48:46;;;;;;;38.00;31.35;;;21.60;99.90;;;;;;4880819;29;20024;-75
2023/08/18 04:51:12;;;;;;;35.47;30.73;;;21.70;99.90;;;;;;4896054;29;20036;-75
2023/08/18 04:53:37;;;;;;;37.10;30.95;;;21.70;99.90;;;;;;4896176;29;20042;-75
2023/08/18 04:56:04;;;;;;;38.50;33.05;;;21.70;99.90;;;;;;4895191;29;20060;-73
2023/08/18 04:58:29;;;;;;;37.53;32.08;;;21.80;99.90;;;;;;4895905;29;20033;-75
2023/08/18 05:00:59;;;;;;;35.15;30.77;;;21.90;99.90;;;;;;4880463;29;20037;-75
2023/08/18 05:03:25;;;;;;;38.13;31.40;;;21.90;99.90;;;;;;4896313;29;20036;-75
2023/08/18 05:06:08;;;;;;;35.05;30.50;;;21.90;99.90;;;;;;4896501;29;20374;-73
2023/08/18 05:08:35;;;;;;;36.40;30.85;;;21.90;99.90;;;;;;4906680;29;20028;-73
2023/08/18 05:11:06;;;;;;;35.53;29.17;;;22.00;99.90;;;;;;4917166;29;20039;-73
2023/08/18 05:13:33;;;;;;;32.65;28.50;;;22.10;99.90;;;;;;4928013;29;20607;-72
2023/08/18 05:16:00;;;;;;;37.13;29.65;;;22.10;99.90;;;;;;4916902;29;20020;-75
2023/08/18 05:18:26;;;;;;;36.30;30.13;;;22.10;99.90;;;;;;4917404;29;20031;-73
2023/08/18 05:20:52;;;;;;;36.25;28.98;;;22.20;99.90;;;;;;4917495;29;20032;-73
2023/08/18 05:23:18;;;;;;;34.83;28.98;;;22.40;99.90;;;;;;4916706;29;20039;-72
2023/08/18 05:25:48;;;;;;;37.67;28.63;;;22.40;99.90;;;;;;4916926;29;20138;-76
2023/08/18 05:28:14;;;;;;;35.42;29.23;;;22.50;99.90;;;;;;4911450;29;20028;-74
2023/08/18 05:30:48;;;;;;;35.38;29.20;;;22.70;99.90;;;;;;4897517;29;20032;-73
2023/08/18 05:33:14;;;;;;;32.97;27.35;;;22.80;99.90;;;;;;4898841;29;20108;-74
2023/08/18 05:35:40;;;;;;;33.85;28.15;;;22.80;99.90;;;;;;4898119;29;20103;-73
2023/08/18 05:38:12;;;;;;;34.15;27.83;;;22.90;99.90;;;;;;4911782;29;20402;-74
2023/08/18 05:40:45;;;;;;;30.73;26.98;;;23.00;99.90;;;;;;4898329;29;20096;-73
2023/08/18 05:43:14;;;;;;;36.72;29.92;;;22.90;99.90;;;;;;4897916;29;20028;-75
2023/08/18 05:45:40;;;;;;;31.17;25.85;;;23.00;99.90;;;;;;4897859;29;20044;-73
2023/08/18 05:48:06;;;;;;;30.10;26.23;;;23.10;99.90;;;;;;4900474;29;20036;-73
2023/08/18 05:50:33;;;;;;;31.55;25.48;;;23.00;99.90;;;;;;4897812;29;20029;-73
2023/08/18 05:53:02;;;;;;;31.80;25.45;;;23.00;99.90;;;;;;4897743;29;20016;-72
2023/08/18 05:55:28;;;;;;;35.03;25.90;;;23.10;99.90;;;;;;4897840;29;20044;-73
2023/08/18 05:57:54;;;;;;;33.20;26.70;;;23.10;99.90;;;;;;4900748;29;20028;-72
2023/08/18 06:00:20;;;;;;;32.75;26.45;;;23.10;99.90;;;;;;4900935;29;20038;-72
2023/08/18 06:02:47;;;;;;;30.50;24.80;;;23.00;99.90;;;;;;4898147;29;20067;-74
2023/08/18 06:05:12;;;;;;;29.50;25.05;;;23.10;99.90;;;;;;4897217;29;20218;-72
2023/08/18 06:07:42;;;;;;;32.08;25.85;;;23.20;99.90;;;;;;4896382;29;20548;-75
2023/08/18 06:10:09;;;;;;;29.83;24.60;;;23.40;99.90;;;;;;4911213;29;20035;-73
2023/08/18 06:12:35;;;;;;;34.47;25.45;;;23.40;99.90;;;;;;4911213;29;20484;-74
2023/08/18 06:15:01;;;;;;;34.17;26.27;;;23.30;99.90;;;;;;4898142;29;20025;-74
2023/08/18 06:17:27;;;;;;;31.25;26.40;;;23.40;99.90;;;;;;4898680;29;20113;-72
2023/08/18 06:19:53;;;;;;;32.53;27.00;;;23.50;99.90;;;;;;4915146;29;20027;-73
2023/08/18 06:22:19;;;;;;;32.00;25.45;;;23.50;99.90;;;;;;4902603;29;20068;-72
2023/08/18 06:24:45;;;;;;;33.38;24.17;;;23.50;99.90;;;;;;4901784;29;20025;-74
2023/08/18 06:27:11;;;;;;;29.90;24.45;;;23.60;99.90;;;;;;4896655;29;20067;-74
2023/08/18 06:29:40;;;;;;;37.40;26.98;;;23.70;99.90;;;;;;4897841;29;20043;-73
2023/08/18 06:32:05;;;;;;;32.60;27.55;;;23.90;99.90;;;;;;4908004;29;20028;-73
2023/08/18 06:34:31;;;;;;;34.97;27.15;;;23.90;99.90;;;;;;4897664;29;20104;-73
2023/08/18 06:36:57;;;;;;;31.48;26.00;;;23.90;99.90;;;;;;4897046;29;20117;-73
2023/08/18 06:39:23;;;;;;;34.15;26.30;;;23.80;99.90;;;;;;4897042;29;20060;-74
2023/08/18 06:41:49;;;;;;;31.70;26.88;;;23.90;99.90;;;;;;4900839;29;20040;-72
2023/08/18 06:44:15;;;;;;;33.53;27.77;;;23.90;99.90;;;;;;4897420;29;20032;-74
2023/08/18 06:46:40;;;;;;;32.13;27.00;;;24.00;99.90;;;;;;4911169;29;20033;-75
2023/08/18 06:49:06;;;;;;;35.17;26.60;;;23.90;99.90;;;;;;4911642;29;20430;-75
2023/08/18 06:51:32;;;;;;;30.70;25.88;;;23.90;99.90;;;;;;4906809;29;20115;-74
2023/08/18 06:53:57;;;;;;;32.03;24.92;;;24.10;99.90;;;;;;4915358;29;20031;-73
2023/08/18 06:56:23;;;;;;;27.98;23.20;;;24.00;99.90;;;;;;4915799;29;20484;-74
2023/08/18 06:58:49;;;;;;;30.40;23.15;;;24.10;99.90;;;;;;4915677;29;20481;-72
2023/08/18 07:01:15;;;;;;;29.13;23.13;;;24.20;99.90;;;;;;4915624;29;20445;-74
2023/08/18 07:03:40;;;;;;;33.28;23.27;;;24.40;99.90;;;;;;4915118;29;20099;-74
2023/08/18 07:06:08;;;;;;;29.33;23.30;;;24.30;99.90;;;;;;4915700;29;20036;-75
2023/08/18 07:08:34;;;;;;;27.77;22.75;;;24.50;99.90;;;;;;4915272;29;20021;-73
2023/08/18 07:11:00;;;;;;;31.63;24.00;;;24.80;99.90;;;;;;4904601;29;20501;-74
2023/08/18 07:13:26;;;;;;;29.00;21.00;;;25.10;99.90;;;;;;4905415;29;20050;-73
2023/08/18 07:15:52;;;;;;;27.17;21.02;;;25.60;99.90;;;;;;4915291;29;20046;-74
2023/08/18 07:18:18;;;;;;;25.58;19.70;;;25.90;99.90;;;;;;4915119;29;20024;-73
2023/08/18 07:20:45;;;;;;;29.85;20.88;;;26.40;99.90;;;;;;4908145;29;20075;-73
2023/08/18 07:23:11;;;;;;;25.27;19.30;;;26.70;99.90;;;;;;4898203;29;20370;-74
2023/08/18 07:25:41;;;;;;;23.30;19.73;;;26.80;99.90;;;;;;4915009;29;20040;-73
2023/08/18 07:28:07;;;;;;;24.38;19.88;;;26.80;99.90;;;;;;4897890;29;20090;-73
2023/08/18 07:30:33;;;;;;;23.98;18.08;;;27.00;99.90;;;;;;4896385;29;20034;-73
2023/08/18 07:32:59;;;;;;;22.85;18.13;;;27.20;99.90;;;;;;4896762;29;20028;-73
2023/08/18 07:35:25;;;;;;;24.10;18.73;;;27.00;99.90;;;;;;4896513;29;20048;-73
2023/08/18 07:37:52;;;;;;;21.02;16.70;;;27.50;99.90;;;;;;4905925;29;20128;-73
2023/08/18 07:40:18;;;;;;;34.80;17.00;;;27.60;99.90;;;;;;4900091;29;20043;-73
2023/08/18 07:42:47;;;;;;;23.42;18.45;;;27.20;99.90;;;;;;4900421;29;20388;-73
2023/08/18 07:45:12;;;;;;;23.35;18.48;;;27.40;99.90;;;;;;4912323;29;20044;-73
2023/08/18 07:47:40;;;;;;;28.00;17.30;;;27.30;99.90;;;;;;4905483;29;20024;-73
2023/08/18 07:50:09;;;;;;;22.27;17.80;;;27.30;99.90;;;;;;4907752;29;20021;-73
2023/08/18 07:52:35;;;;;;;20.95;16.83;;;27.20;99.90;;;;;;4910602;29;20425;-73
2023/08/18 07:55:05;;;;;;;22.63;16.83;;;27.20;99.90;;;;;;4900056;29;20380;-74
2023/08/18 07:57:31;;;;;;;25.05;19.80;;;27.50;99.90;;;;;;4882646;29;20049;-73
2023/08/18 07:59:57;;;;;;;24.38;18.52;;;27.60;99.90;;;;;;4904613;29;20036;-73
2023/08/18 08:02:23;;;;;;;26.35;17.77;;;;;;;;;;4905638;29;20029;-72
2023/08/18 08:04:50;;;;;;;21.90;16.70;;;27.60;99.90;;;;;;4907555;29;20103;-73
2023/08/18 08:07:16;;;;;;;18.95;14.77;;;28.00;99.90;;;;;;4903281;29;20043;-73
2023/08/18 08:09:43;;;;;;;20.83;15.05;;;;;;;;;;4911391;29;20369;-73
2023/08/18 08:12:08;;;;;;;16.73;12.73;;;28.40;99.90;;;;;;4915441;29;20036;-73
2023/08/18 08:14:34;;;;;;;20.50;13.82;;;28.60;99.90;;;;;;4898961;29;20072;-73
2023/08/18 08:17:01;;;;;;;17.63;12.98;;;28.60;99.90;;;;;;4907751;29;20125;-74
2023/08/18 08:19:27;;;;;;;19.98;12.88;;;28.70;99.90;;;;;;4915539;29;20032;-74
2023/08/18 08:21:53;;;;;;;19.58;13.43;;;;;;;;;;4914240;29;20035;-73
2023/08/18 08:24:20;;;;;;;19.73;14.13;;;;;;;;;;4917966;29;20048;-74
2023/08/18 08:26:45;;;;;;;17.17;13.50;;;28.80;99.90;;;;;;4917982;29;20056;-73
2023/08/18 08:29:11;;;;;;;21.85;14.27;;;;;;;;;;4900759;29;20024;-74
2023/08/18 08:31:37;;;;;;;17.17;12.90;;;29.30;99.90;;;;;;4902118;29;20044;-73
2023/08/18 08:34:03;;;;;;;17.42;12.88;;;29.50;99.90;;;;;;4909192;29;20021;-74
2023/08/18 08:36:32;;;;;;;17.75;13.52;;;29.50;99.20;;;;;;4917234;29;20111;-74
2023/08/18 08:39:02;;;;;;;19.02;12.55;;;29.40;99.90;;;;;;4918536;29;20044;-74
2023/08/18 08:41:37;;;;;;;17.88;12.90;;;29.80;99.80;;;;;;4917481;29;20075;-74
2023/08/18 08:44:03;;;;;;;19.05;11.52;;;29.90;98.30;;;;;;4917832;29;20107;-73
2023/08/18 08:46:30;;;;;;;17.83;12.40;;;29.80;98.00;;;;;;4917941;29;20036;-73
2023/08/18 08:49:00;;;;;;;16.42;11.18;;;29.90;98.00;;;;;;4916950;29;20031;-73
2023/08/18 08:51:28;;;;;;;16.98;10.63;;;;;;;;;;4917934;29;20040;-75
2023/08/18 08:53:56;;;;;;;16.40;11.38;;;;;;;;;;4917595;29;20028;-74
2023/08/18 08:56:26;;;;;;;17.75;10.23;;;30.50;96.70;;;;;;4917887;29;20032;-75
2023/08/18 08:58:54;;;;;;;17.73;12.75;;;30.50;96.30;;;;;;4912680;29;20025;-75
2023/08/18 09:01:22;;;;;;;16.92;12.23;;;30.50;97.40;;;;;;4910322;29;20498;-74
2023/08/18 09:03:50;;;;;;;17.58;12.70;;;30.70;95.80;;;;;;4916947;29;20039;-75
2023/08/18 09:06:16;;;;;;;16.25;11.98;;;30.70;99.90;;;;;;4903218;29;20041;-74
2023/08/18 09:08:42;;;;;;;17.67;11.93;;;30.70;99.90;;;;;;4898804;29;20437;-72
2023/08/18 09:11:09;;;;;;;20.08;13.90;;;30.60;99.90;;;;;;4898579;29;20036;-74
2023/08/18 09:13:35;;;;;;;23.90;15.50;;;30.50;99.90;;;;;;4906916;29;20059;-74
2023/08/18 09:16:06;;;;;;;21.17;13.52;;;30.30;99.90;;;;;;4898599;29;20068;-74
2023/08/18 09:18:35;;;;;;;20.80;14.05;;;30.30;99.90;;;;;;4906918;29;20068;-73
2023/08/18 09:21:04;;;;;;;27.25;14.10;;;30.20;99.90;;;;;;4898559;29;20032;-72
2023/08/18 09:23:30;;;;;;;21.08;14.15;;;29.70;99.90;;;;;;4901144;29;20076;-72
2023/08/18 09:25:57;;;;;;;29.88;14.05;;;30.00;99.90;;;;;;4907070;29;20425;-72
2023/08/18 09:28:26;;;;;;;21.95;12.20;;;29.80;99.90;;;;;;4916940;29;20514;-74
2023/08/18 09:30:52;;;;;;;18.63;12.25;;;30.10;99.90;;;;;;4917505;29;20032;-74
2023/08/18 09:33:23;;;;;;;19.73;13.00;;;30.20;99.90;;;;;;4916150;29;20080;-72
2023/08/18 09:35:57;;;;;;;16.25;11.50;;;29.90;99.90;;;;;;4904029;29;20040;-77
2023/08/18 09:38:25;;;;;;;17.27;12.20;;;29.90;99.90;;;;;;4903788;29;20052;-72
2023/08/18 09:40:55;;;;;;;19.58;11.38;;;29.70;99.90;;;;;;4916783;29;20036;-73
2023/08/18 09:43:24;;;;;;;24.88;13.27;;;29.80;99.90;;;;;;4914829;29;20040;-73
2023/08/18 09:45:52;;;;;;;21.35;12.77;;;29.80;99.90;;;;;;4916411;29;20075;-73
2023/08/18 09:48:21;;;;;;;20.40;13.15;;;29.80;99.90;;;;;;4900098;29;20030;-74
2023/08/18 09:50:51;;;;;;;19.80;11.63;;;29.60;99.90;;;;;;4916689;29;20396;-73
2023/08/18 09:53:21;;;;;;;18.50;12.00;;;30.00;99.90;;;;;;4917139;29;20068;-76
2023/08/18 09:55:49;;;;;;;22.77;12.82;;;30.10;99.90;;;;;;4917202;29;20107;-73
2023/08/18 09:58:23;;;;;;;16.02;11.77;;;30.20;99.90;;;;;;4916624;29;20032;-74
2023/08/18 10:00:56;;;;;;;17.80;13.05;;;30.40;99.90;;;;;;4916568;29;20491;-76
2023/08/18 10:03:26;;;;;;;18.20;11.88;;;30.10;99.90;;;;;;4916501;29;20499;-73
2023/08/18 10:05:52;;;;;;;16.80;11.73;;;30.00;99.90;;;;;;4916311;29;20032;-73
2023/08/18 10:08:20;;;;;;;18.73;13.32;;;29.80;99.90;;;;;;4916661;29;20171;-73
2023/08/18 10:10:47;;;;;;;18.27;13.10;;;29.90;99.90;;;;;;4916441;29;20476;-76
2023/08/18 10:13:14;;;;;;;21.08;13.00;;;29.90;99.90;;;;;;4916197;29;20024;-76
2023/08/18 10:15:41;;;;;;;17.42;13.18;;;29.80;99.90;;;;;;4916374;29;20113;-75
2023/08/18 10:18:11;;;;;;;20.15;13.35;;;30.10;99.90;;;;;;4916486;29;20028;-74
2023/08/18 10:20:51;;;;;;;19.20;13.25;;;30.10;99.90;;;;;;4916404;29;20039;-72
2023/08/18 10:23:18;;;;;;;17.05;12.40;;;29.50;99.90;;;;;;4908909;29;20029;-75
2023/08/18 10:25:45;;;;;;;20.15;12.88;;;29.40;99.90;;;;;;4915678;29;20032;-73
2023/08/18 10:28:17;;;;;;;20.58;12.25;;;29.70;99.90;;;;;;4915994;29;20514;-75
2023/08/18 10:30:53;;;;;;;20.13;13.68;;;29.90;99.90;;;;;;4916243;29;20036;-75
2023/08/18 10:33:46;;;;;;;18.15;12.32;;;29.90;99.90;;;;;;4917324;29;20162;-73
2023/08/18 10:36:26;;;;;;;16.70;12.18;;;29.80;99.90;;;;;;4906126;29;20047;-73
2023/08/18 10:38:54;;;;;;;17.10;12.27;;;30.20;99.90;;;;;;4915887;29;20044;-76
2023/08/18 10:41:28;;;;;;;16.92;11.93;;;30.30;99.90;;;;;;4920008;29;20395;-73
2023/08/18 10:43:57;;;;;;;17.27;11.98;;;30.60;99.90;;;;;;4921584;29;20039;-73
2023/08/18 10:46:41;;;;;;;19.33;11.02;;;30.40;99.90;;;;;;4915929;29;20044;-77
2023/08/18 10:49:07;;;;;;;17.25;10.50;;;30.20;99.90;;;;;;4908630;29;20355;-75
2023/08/18 10:51:34;;;;;;;18.00;11.95;;;30.70;99.90;;;;;;4899590;29;20043;-73
2023/08/18 10:53:59;;;;;;;17.42;11.52;;;30.40;99.90;;;;;;4912509;29;20524;-76
2023/08/18 10:56:25;;;;;;;18.00;10.52;;;30.40;99.90;;;;;;4910050;29;20124;-76
2023/08/18 10:58:51;;;;;;;16.73;10.18;;;30.60;99.90;;;;;;4903055;29;20035;-73
2023/08/18 11:01:19;;;;;;;16.52;9.85;;;30.60;99.90;;;;;;4916282;29;20130;-73
2023/08/18 11:03:45;;;;;;;12.75;9.82;;;30.80;99.90;;;;;;4916044;29;20436;-74
2023/08/18 11:06:11;;;;;;;13.13;9.48;;;30.20;99.90;;;;;;4915626;29;20408;-74
2023/08/18 11:08:37;;;;;;;13.18;9.45;;;30.60;99.90;;;;;;4916163;29;20024;-76
2023/08/18 11:11:03;;;;;;;15.20;10.02;;;30.70;99.90;;;;;;4917664;29;20038;-77
2023/08/18 11:13:29;;;;;;;15.13;10.40;;;30.70;99.90;;;;;;4915076;29;20029;-77
2023/08/18 11:15:56;;;;;;;13.98;9.27;;;30.70;99.90;;;;;;4901510;29;20028;-74
2023/08/18 11:18:22;;;;;;;15.48;10.13;;;30.80;99.90;;;;;;4907123;29;20413;-77
2023/08/18 11:20:50;;;;;;;11.85;8.98;;;30.30;99.90;;;;;;4913907;29;20047;-76
2023/08/18 11:23:15;;;;;;;13.25;10.02;;;30.50;99.90;;;;;;4905480;29;20507;-74
2023/08/18 11:25:41;;;;;;;16.30;10.20;;;30.40;99.90;;;;;;4901335;29;20040;-77
2023/08/18 11:28:08;;;;;;;14.00;10.43;;;30.40;99.90;;;;;;4901967;29;20462;-74
2023/08/18 11:30:34;;;;;;;11.73;8.50;;;30.60;99.90;;;;;;4901783;29;20546;-74
2023/08/18 11:33:00;;;;;;;14.00;9.45;;;30.50;99.90;;;;;;4905125;29;20107;-75
2023/08/18 11:35:26;;;;;;;16.95;9.68;;;30.20;99.90;;;;;;4903020;29;20100;-77
2023/08/18 11:37:55;;;;;;;11.18;8.60;;;30.70;99.90;;;;;;4905212;29;20076;-77
2023/08/18 11:40:23;;;;;;;11.40;7.80;;;30.40;99.90;;;;;;4921982;29;20079;-74
2023/08/18 11:42:50;;;;;;;14.20;8.07;;;30.70;99.90;;;;;;4921730;29;20071;-73
2023/08/18 11:45:18;;;;;;;14.07;5.65;;;30.90;99.90;;;;;;4921895;29;20044;-73
2023/08/18 11:47:49;;;;;;;6.65;5.05;;;30.70;99.00;;;;;;4921456;29;20036;-75
2023/08/18 11:50:20;;;;;;;12.90;6.43;;;30.60;98.60;;;;;;4921798;29;20042;-76
2023/08/18 11:52:50;;;;;;;13.45;6.78;;;30.80;98.10;;;;;;4921866;29;20365;-74
2023/08/18 11:55:28;;;;;;;7.95;5.97;;;30.80;99.10;;;;;;4913970;29;20040;-76
2023/08/18 11:57:53;;;;;;;12.55;6.05;;;30.80;98.50;;;;;;4921433;29;20452;-77
2023/08/18 12:00:20;;;;;;;12.48;6.63;;;30.70;99.70;;;;;;4916696;29;20119;-77
2023/08/18 12:02:47;;;;;;;10.00;6.30;;;30.60;99.50;;;;;;4909660;29;20047;-75
2023/08/18 12:05:23;;;;;;;9.50;6.50;;;30.90;99.20;;;;;;4920927;29;20043;-76
2023/08/18 12:07:53;;;;;;;9.15;5.88;;;30.70;98.70;;;;;;4922230;29;20025;-75
2023/08/18 12:10:22;;;;;;;10.75;6.75;;;30.50;98.90;;;;;;4921470;29;20392;-76
2023/08/18 12:12:55;;;;;;;10.82;6.43;;;30.70;99.70;;;;;;4922491;29;20637;-75
2023/08/18 12:15:24;;;;;;;19.25;7.47;;;30.60;99.40;;;;;;4922402;29;20111;-75
2023/08/18 12:17:51;;;;;;;11.30;8.52;;;30.50;99.90;;;;;;4922188;29;20083;-76
2023/08/18 12:20:21;;;;;;;12.32;8.13;;;30.60;99.90;;;;;;4905193;29;20020;-78
2023/08/18 12:22:49;;;;;;;13.57;8.98;;;30.70;99.90;;;;;;4928424;29;20020;-76
2023/08/18 12:25:15;;;;;;;13.63;8.48;;;30.60;99.90;;;;;;4920242;29;20040;-75
2023/08/18 12:27:47;;;;;;;13.18;8.85;;;30.40;99.90;;;;;;4922500;29;20047;-75
2023/08/18 12:30:13;;;;;;;;;;;30.70;99.90;;;;;;4928116;29;20443;-74
2023/08/18 12:32:39;;;;;;;12.43;8.27;;;30.60;99.90;;;;;;4920469;29;19914;-76